Time;durP1;ratioP1;P1;durP2;ratioP2;P2;SDS_P1;SDS_P2;PMS_P1;PMS_P2;Temp;Humidity;BMP_temperature;BMP_pressure;BME280_temperature;BME280_humidity;BME280_pressure;Samples;Min_cycle;Max_cycle;Signal;HPM_P1;HPM_P2
2022/06/13 00:00:26;;;;;;;3.35;1.40;;;14.80;65.10;;;;;;5018357;28;20033;-59
2022/06/13 00:02:52;;;;;;;2.70;1.30;;;14.70;64.10;;;;;;5010534;28;20030;-59
2022/06/13 00:05:18;;;;;;;5.43;1.60;;;14.60;64.20;;;;;;5013198;28;20018;-59
2022/06/13 00:07:44;;;;;;;3.28;1.30;;;14.50;65.70;;;;;;5029603;28;20104;-58
2022/06/13 00:10:14;;;;;;;3.58;1.20;;;14.50;68.00;;;;;;4995673;28;20145;-60
2022/06/13 00:12:41;;;;;;;4.30;1.85;;;14.40;67.70;;;;;;5010440;28;20030;-59
2022/06/13 00:15:08;;;;;;;2.97;1.27;;;14.40;69.50;;;;;;5013730;28;20034;-57
2022/06/13 00:17:34;;;;;;;4.38;1.42;;;14.30;69.90;;;;;;5029654;28;20439;-59
2022/06/13 00:20:00;;;;;;;4.95;1.17;;;14.30;71.70;;;;;;4996634;28;20030;-59
2022/06/13 00:22:26;;;;;;;4.95;1.25;;;14.20;72.60;;;;;;5009775;28;20037;-59
2022/06/13 00:24:51;;;;;;;1.13;0.90;;;14.20;71.10;;;;;;5016277;28;20034;-59
2022/06/13 00:27:17;;;;;;;4.32;1.23;;;14.20;71.60;;;;;;5028225;28;20301;-60
2022/06/13 00:29:44;;;;;;;3.53;1.35;;;14.20;72.10;;;;;;5008731;28;20054;-59
2022/06/13 00:32:10;;;;;;;3.45;1.20;;;14.20;71.90;;;;;;5029315;28;20531;-59
2022/06/13 00:34:35;;;;;;;6.25;1.67;;;14.30;73.20;;;;;;5008675;28;20110;-59
2022/06/13 00:37:01;;;;;;;5.60;2.03;;;14.40;75.50;;;;;;5029208;28;20037;-58
2022/06/13 00:39:26;;;;;;;4.97;1.80;;;14.50;72.50;;;;;;5008696;28;20058;-59
2022/06/13 00:41:52;;;;;;;2.55;1.15;;;14.50;72.80;;;;;;5029039;28;20788;-59
2022/06/13 00:44:25;;;;;;;2.35;1.48;;;14.50;72.60;;;;;;5008743;28;20032;-59
2022/06/13 00:46:51;;;;;;;5.25;1.27;;;14.50;73.20;;;;;;5010056;28;20026;-59
2022/06/13 00:49:39;;;;;;;3.15;1.48;;;14.40;74.00;;;;;;5014119;28;20517;-59
2022/06/13 00:52:14;;;;;;;3.65;1.58;;;14.40;75.20;;;;;;5029440;28;20038;-59
2022/06/13 00:54:41;;;;;;;2.92;1.73;;;14.40;75.50;;;;;;4998305;28;20061;-59
2022/06/13 00:57:12;;;;;;;8.75;1.73;;;14.40;75.70;;;;;;5029050;28;20057;-60
2022/06/13 00:59:39;;;;;;;2.58;1.13;;;14.50;73.60;;;;;;4994149;28;20383;-52
2022/06/13 01:02:07;;;;;;;5.88;1.45;;;14.50;76.50;;;;;;5028993;28;20036;-55
2022/06/13 01:04:32;;;;;;;5.53;1.63;;;14.60;76.40;;;;;;5008122;28;20053;-54
2022/06/13 01:07:00;;;;;;;2.67;1.23;;;14.60;72.90;;;;;;5028720;28;20716;-51
2022/06/13 01:12:13;;;;;;;2.05;1.42;;;14.70;73.00;;;;;;5029729;28;20060;-60
2022/06/13 01:15:15;;;;;;;5.25;1.98;;;14.70;73.00;;;;;;5007937;28;20037;-59
2022/06/13 01:17:40;;;;;;;4.22;1.63;;;14.70;72.80;;;;;;4990022;28;20030;-60
2022/06/13 01:20:21;;;;;;;3.72;1.55;;;14.60;72.60;;;;;;5012857;28;20157;-59
2022/06/13 01:23:17;;;;;;;2.40;1.17;;;14.60;73.60;;;;;;4989931;28;20030;-60
2022/06/13 01:25:51;;;;;;;3.30;1.73;;;14.60;72.70;;;;;;5006459;28;20502;-60
2022/06/13 01:28:34;;;;;;;5.45;1.48;;;14.50;73.30;;;;;;5029134;28;20075;-60
2022/06/13 01:31:16;;;;;;;2.05;1.17;;;14.40;73.60;;;;;;4989864;28;20498;-59
2022/06/13 01:34:09;;;;;;;5.03;1.40;;;14.30;74.00;;;;;;4989709;28;20053;-60
2022/06/13 01:37:12;;;;;;;4.80;1.63;;;14.30;74.70;;;;;;5005102;28;20034;-60
2022/06/13 01:40:04;;;;;;;4.80;1.35;;;14.20;76.00;;;;;;5026061;28;20033;-59
2022/06/13 01:42:54;;;;;;;2.70;1.25;;;14.20;77.20;;;;;;4989449;28;20045;-59
2022/06/13 01:45:39;;;;;;;3.90;1.35;;;14.10;75.50;;;;;;5002851;28;20701;-60
2022/06/13 01:48:34;;;;;;;4.13;1.35;;;14.10;79.40;;;;;;5028656;28;20040;-59
2022/06/13 01:51:22;;;;;;;3.17;1.45;;;14.00;80.00;;;;;;4983647;28;20043;-60
2022/06/13 01:54:05;;;;;;;3.15;1.30;;;13.90;79.40;;;;;;5007812;28;20584;-57
2022/06/13 01:56:43;;;;;;;4.35;1.70;;;13.90;78.60;;;;;;5028672;28;20028;-60
2022/06/13 01:59:19;;;;;;;4.20;1.73;;;13.80;79.00;;;;;;4998619;28;20045;-59
2022/06/13 02:01:53;;;;;;;4.60;1.30;;;13.70;79.60;;;;;;5021296;28;20021;-60
2022/06/13 02:04:25;;;;;;;3.28;1.48;;;13.60;80.60;;;;;;5001140;28;20223;-60
2022/06/13 02:07:02;;;;;;;3.50;1.48;;;13.50;81.80;;;;;;5028462;28;20104;-59
2022/06/13 02:09:31;;;;;;;3.78;1.60;;;13.40;85.10;;;;;;5003584;28;20057;-60
2022/06/13 02:11:57;;;;;;;2.38;1.20;;;13.30;85.10;;;;;;5008842;28;20022;-60
2022/06/13 02:14:38;;;;;;;6.18;1.85;;;13.20;86.70;;;;;;5025960;28;20039;-60
2022/06/13 02:17:09;;;;;;;4.15;1.10;;;13.10;88.50;;;;;;4989083;28;20105;-60
2022/06/13 02:19:53;;;;;;;5.68;1.50;;;13.00;89.70;;;;;;5005326;28;20116;-60
2022/06/13 02:22:30;;;;;;;2.90;1.63;;;13.00;90.40;;;;;;4971753;28;20390;-59
2022/06/13 02:25:05;;;;;;;5.75;1.60;;;12.90;91.20;;;;;;5011056;28;20041;-60
2022/06/13 02:27:38;;;;;;;2.75;1.45;;;12.90;92.80;;;;;;5008983;28;20045;-60
2022/06/13 02:30:11;;;;;;;3.00;1.20;;;12.90;92.30;;;;;;5013418;28;20117;-60
2022/06/13 02:32:42;;;;;;;2.63;1.42;;;12.90;91.90;;;;;;5028196;28;20022;-60
2022/06/13 02:35:13;;;;;;;4.90;1.30;;;12.80;91.80;;;;;;5000612;28;20393;-60
2022/06/13 02:37:47;;;;;;;3.80;1.60;;;12.90;92.80;;;;;;5028292;28;20509;-60
2022/06/13 02:40:20;;;;;;;4.05;1.60;;;12.90;93.10;;;;;;5005194;28;20052;-60
2022/06/13 02:42:55;;;;;;;5.13;1.60;;;13.00;92.10;;;;;;5032153;28;20095;-60
2022/06/13 02:45:27;;;;;;;4.00;1.73;;;13.00;92.60;;;;;;5006339;28;20034;-60
2022/06/13 02:48:01;;;;;;;2.58;1.38;;;13.00;93.70;;;;;;5031781;28;20385;-59
2022/06/13 02:50:38;;;;;;;2.55;1.30;;;13.00;92.90;;;;;;5007080;28;20034;-60
2022/06/13 02:53:35;;;;;;;3.72;1.50;;;13.00;92.70;;;;;;5032154;28;20034;-58
2022/06/13 02:56:13;;;;;;;6.10;1.70;;;12.90;93.10;;;;;;4992535;28;20073;-59
2022/06/13 02:59:23;;;;;;;3.35;1.77;;;12.90;93.30;;;;;;4992113;28;20085;-60
2022/06/13 03:01:51;;;;;;;4.50;1.17;;;12.80;94.10;;;;;;5004726;28;20037;-60
2022/06/13 03:04:47;;;;;;;3.58;2.05;;;12.70;94.30;;;;;;5016278;28;20034;-59
2022/06/13 03:07:22;;;;;;;4.60;1.30;;;12.60;94.90;;;;;;4992433;28;20034;-60
2022/06/13 03:09:54;;;;;;;2.70;1.52;;;12.50;95.60;;;;;;5001252;28;20041;-59
2022/06/13 03:12:48;;;;;;;4.28;1.48;;;12.50;96.30;;;;;;5031755;28;20477;-60
2022/06/13 03:15:30;;;;;;;6.00;1.80;;;12.40;97.50;;;;;;5004811;28;20517;-59
2022/06/13 03:18:14;;;;;;;3.50;1.30;;;12.40;98.90;;;;;;4992152;28;20026;-60
2022/06/13 03:20:53;;;;;;;3.42;1.70;;;12.50;98.10;;;;;;5008103;28;20041;-60
2022/06/13 03:23:35;;;;;;;5.60;1.88;;;12.60;98.10;;;;;;4992210;28;20064;-60
2022/06/13 03:26:08;;;;;;;3.70;1.95;;;12.80;98.30;;;;;;4992166;28;20109;-59
2022/06/13 03:28:42;;;;;;;3.83;1.27;;;13.00;96.50;;;;;;4990906;28;20121;-59
2022/06/13 03:31:14;;;;;;;4.88;1.73;;;13.10;96.60;;;;;;5011668;28;20038;-60
2022/06/13 03:33:43;;;;;;;4.28;1.50;;;13.20;97.10;;;;;;5026265;28;20024;-59
2022/06/13 03:36:35;;;;;;;4.35;1.77;;;13.40;97.10;;;;;;4991846;28;20395;-59
2022/06/13 03:39:19;;;;;;;4.65;1.63;;;13.60;96.10;;;;;;4999307;28;20117;-60
2022/06/13 03:42:01;;;;;;;2.13;1.73;;;13.60;95.00;;;;;;5020713;28;20061;-59
2022/06/13 03:44:32;;;;;;;8.02;2.10;;;13.70;94.80;;;;;;5005757;28;20028;-60
2022/06/13 03:47:24;;;;;;;5.80;1.77;;;13.80;93.60;;;;;;4991518;28;20088;-59
2022/06/13 03:49:56;;;;;;;4.78;1.90;;;13.90;93.70;;;;;;5010750;28;20034;-60
2022/06/13 03:52:24;;;;;;;2.42;1.33;;;13.90;93.40;;;;;;4991427;28;20038;-60
2022/06/13 03:55:06;;;;;;;4.22;1.65;;;14.00;92.90;;;;;;5028128;28;20037;-59
2022/06/13 03:57:37;;;;;;;3.58;1.20;;;14.00;93.10;;;;;;4991399;28;20037;-60
2022/06/13 04:00:20;;;;;;;2.72;1.27;;;14.10;94.10;;;;;;5015329;28;20396;-60
2022/06/13 04:02:46;;;;;;;2.20;1.52;;;14.10;94.90;;;;;;4990617;28;20529;-60
2022/06/13 04:05:34;;;;;;;4.55;1.67;;;14.10;94.80;;;;;;5009060;28;20030;-60
2022/06/13 04:08:01;;;;;;;2.15;1.40;;;14.20;96.60;;;;;;5010843;28;20040;-60
2022/06/13 04:10:28;;;;;;;3.97;1.55;;;14.20;96.30;;;;;;5008548;28;20485;-60
2022/06/13 04:13:24;;;;;;;3.50;2.00;;;14.20;97.80;;;;;;5011024;28;20087;-60
2022/06/13 04:16:03;;;;;;;3.22;1.90;;;14.30;98.20;;;;;;5011062;28;20037;-60
2022/06/13 04:18:52;;;;;;;3.47;1.70;;;14.30;95.00;;;;;;4991347;28;20490;-60
2022/06/13 04:22:02;;;;;;;6.05;1.60;;;14.40;95.20;;;;;;5013545;28;20028;-60
2022/06/13 04:24:36;;;;;;;4.15;2.10;;;14.50;95.60;;;;;;5024642;28;20077;-60
2022/06/13 04:27:07;;;;;;;4.07;1.60;;;14.60;94.80;;;;;;5030477;28;20029;-60
2022/06/13 04:29:42;;;;;;;2.72;1.35;;;14.90;94.50;;;;;;5008499;28;20030;-60
2022/06/13 04:32:15;;;;;;;4.72;1.35;;;15.90;91.90;;;;;;5010630;28;20028;-60
2022/06/13 04:34:50;;;;;;;3.45;1.60;;;18.70;70.90;;;;;;4991649;28;20497;-60
2022/06/13 04:37:18;;;;;;;3.88;1.55;;;19.90;57.90;;;;;;5030237;28;20485;-60
2022/06/13 04:39:47;;;;;;;4.03;1.48;;;21.70;48.50;;;;;;5008435;28;20037;-68
2022/06/13 04:42:15;;;;;;;3.30;1.60;;;23.10;40.50;;;;;;5029648;28;20545;-57
2022/06/13 04:44:42;;;;;;;3.80;1.45;;;24.10;34.40;;;;;;5008449;28;20025;-52
2022/06/13 04:47:11;;;;;;;3.08;1.45;;;25.10;31.60;;;;;;5029256;28;20040;-57
2022/06/13 04:49:45;;;;;;;3.22;1.73;;;26.20;28.30;;;;;;5008113;28;20080;-54
2022/06/13 04:52:16;;;;;;;5.63;1.88;;;27.10;21.50;;;;;;4990653;28;20108;-57
2022/06/13 04:54:46;;;;;;;3.10;1.65;;;27.70;21.80;;;;;;5006992;28;20029;-56
2022/06/13 04:57:14;;;;;;;4.72;1.60;;;27.90;21.40;;;;;;4990569;28;20109;-56
2022/06/13 04:59:41;;;;;;;3.53;1.60;;;28.10;20.10;;;;;;5018932;28;20064;-56
2022/06/13 05:02:12;;;;;;;3.88;1.60;;;28.90;19.20;;;;;;5010025;28;20033;-56
2022/06/13 05:04:37;;;;;;;5.60;1.98;;;29.60;13.50;;;;;;5005831;28;20516;-57
2022/06/13 05:07:13;;;;;;;4.78;1.83;;;30.00;14.50;;;;;;5010393;28;20091;-56
2022/06/13 05:10:02;;;;;;;;;;;30.30;11.90;;;;;;5006654;28;20042;-65
2022/06/13 05:12:39;;;;;;;5.88;1.60;;;30.50;6.90;;;;;;4984258;28;20005;-65
2022/06/13 05:15:09;;;;;;;4.43;1.50;;;30.90;10.40;;;;;;5000560;28;20470;-65
2022/06/13 05:18:08;;;;;;;5.18;1.52;;;31.10;11.50;;;;;;5011355;28;20041;-64
2022/06/13 05:20:43;;;;;;;4.95;1.95;;;31.60;8.90;;;;;;5000080;28;20152;-64
2022/06/13 05:23:29;;;;;;;;;;;32.00;9.20;;;;;;4987770;28;20058;-64
2022/06/13 05:25:58;;;;;;;4.30;1.80;;;31.80;5.50;;;;;;4988837;28;20321;-64
2022/06/13 05:28:25;;;;;;;3.38;1.80;;;31.60;8.70;;;;;;5007998;28;20100;-64
2022/06/13 05:30:54;;;;;;;3.33;1.63;;;32.00;7.80;;;;;;4996667;28;20510;-64
2022/06/13 05:33:24;;;;;;;3.20;1.77;;;32.40;7.60;;;;;;5010294;28;20106;-64
2022/06/13 05:35:56;;;;;;;3.50;1.45;;;32.70;6.90;;;;;;4993660;28;20091;-63
2022/06/13 05:38:36;;;;;;;4.15;2.10;;;33.40;6.10;;;;;;4986895;28;20097;-65
2022/06/13 05:41:02;;;;;;;4.25;1.50;;;33.80;4.20;;;;;;4994284;28;20041;-64
2022/06/13 05:43:27;;;;;;;4.82;1.95;;;34.00;3.70;;;;;;4993885;28;20176;-65
2022/06/13 05:45:53;;;;;;;4.72;2.03;;;34.30;3.00;;;;;;5003193;28;20069;-64
2022/06/13 05:48:21;;;;;;;4.03;1.80;;;34.00;2.60;;;;;;5016267;28;20061;-64
2022/06/13 05:50:47;;;;;;;5.13;1.83;;;34.30;2.60;;;;;;4991958;28;20050;-64
2022/06/13 05:53:15;;;;;;;2.83;1.40;;;34.10;2.40;;;;;;5003493;28;20184;-64
2022/06/13 05:55:42;;;;;;;3.85;1.55;;;34.90;2.20;;;;;;5003076;28;20026;-64
2022/06/13 05:58:10;;;;;;;3.20;1.30;;;35.20;1.70;;;;;;5027139;28;20029;-68
2022/06/13 06:00:40;;;;;;;4.18;1.83;;;35.50;1.00;;;;;;4992155;28;20115;-69
2022/06/13 06:03:05;;;;;;;2.67;1.25;;;36.50;1.00;;;;;;4986834;28;20383;-70
2022/06/13 06:05:31;;;;;;;3.58;1.50;;;37.50;1.00;;;;;;5006509;28;20084;-70
2022/06/13 06:07:57;;;;;;;3.08;1.38;;;38.10;1.00;;;;;;5006566;28;20026;-70
2022/06/13 06:10:29;;;;;;;4.70;1.80;;;37.70;1.00;;;;;;5026444;28;20116;-69
2022/06/13 06:12:55;;;;;;;4.38;1.52;;;37.70;1.00;;;;;;5004501;28;20038;-70
2022/06/13 06:15:20;;;;;;;3.30;1.38;;;37.30;1.00;;;;;;5030440;28;20112;-69
2022/06/13 06:17:46;;;;;;;3.50;1.48;;;36.80;1.00;;;;;;4993740;28;20041;-68
2022/06/13 06:20:17;;;;;;;3.15;1.33;;;37.20;1.00;;;;;;5010944;28;20064;-69
2022/06/13 06:22:43;;;;;;;4.10;1.63;;;36.70;1.00;;;;;;5006499;28;20113;-68
2022/06/13 06:25:09;;;;;;;4.55;1.50;;;36.60;1.00;;;;;;5030426;28;20116;-69
2022/06/13 06:27:35;;;;;;;2.72;1.10;;;36.10;1.00;;;;;;4994925;28;20081;-68
2022/06/13 06:30:01;;;;;;;2.85;1.33;;;35.70;1.00;;;;;;5010646;28;20034;-68
2022/06/13 06:32:26;;;;;;;2.55;1.15;;;35.30;1.00;;;;;;5008708;28;20030;-68
2022/06/13 06:34:52;;;;;;;2.70;1.50;;;34.80;1.00;;;;;;5030221;28;20485;-68
2022/06/13 06:37:17;;;;;;;4.28;1.30;;;35.70;1.00;;;;;;4997164;28;20034;-69
2022/06/13 06:39:43;;;;;;;3.17;1.60;;;37.00;1.00;;;;;;5010303;28;20034;-68
2022/06/13 06:42:09;;;;;;;4.53;1.70;;;38.40;1.00;;;;;;5016587;28;20054;-68
2022/06/13 06:44:34;;;;;;;3.22;1.50;;;38.30;1.00;;;;;;5030525;28;20568;-68
2022/06/13 06:47:00;;;;;;;4.55;1.50;;;37.10;1.00;;;;;;5009615;28;20124;-69
2022/06/13 06:49:26;;;;;;;5.03;1.60;;;34.30;1.00;;;;;;5030204;28;20025;-70
2022/06/13 06:51:51;;;;;;;4.35;1.65;;;32.20;1.00;;;;;;5009302;28;20520;-69
2022/06/13 06:59:54;;;;;;;6.65;1.73;;;27.70;1.00;;;;;;5000194;28;20040;-70
2022/06/13 07:02:23;;;;;;;5.17;1.87;;;26.00;2.10;;;;;;5015889;28;20053;-70
2022/06/13 07:04:59;;;;;;;4.93;1.70;;;24.90;4.00;;;;;;5012218;28;20460;-69
2022/06/13 07:07:25;;;;;;;4.03;1.90;;;23.70;6.30;;;;;;4995166;28;20532;-71
2022/06/13 07:09:51;;;;;;;4.20;1.35;;;23.30;7.00;;;;;;5009968;28;20033;-70
2022/06/13 07:12:17;;;;;;;3.45;1.83;;;23.10;7.70;;;;;;5015124;28;20456;-70
2022/06/13 07:14:42;;;;;;;2.47;1.17;;;22.70;8.70;;;;;;5029730;28;20321;-69
2022/06/13 07:17:10;;;;;;;5.05;1.60;;;22.30;9.20;;;;;;4997535;28;20247;-69
2022/06/13 07:19:36;;;;;;;6.38;2.17;;;22.20;9.70;;;;;;5010098;28;20053;-69
2022/06/13 07:22:03;;;;;;;3.72;1.60;;;22.30;9.80;;;;;;5027668;28;20060;-68
2022/06/13 07:24:31;;;;;;;3.55;1.70;;;24.00;7.40;;;;;;5010957;28;20038;-69
2022/06/13 07:26:57;;;;;;;6.28;1.50;;;25.60;5.20;;;;;;5027543;28;20029;-69
2022/06/13 07:29:22;;;;;;;6.60;1.60;;;25.40;4.00;;;;;;5010490;28;20026;-70
2022/06/13 07:31:57;;;;;;;6.13;2.30;;;25.20;4.00;;;;;;5027473;28;20033;-69
2022/06/13 07:34:26;;;;;;;5.72;1.67;;;25.50;3.40;;;;;;4990735;28;20034;-68
2022/06/13 07:36:54;;;;;;;3.33;1.55;;;27.00;1.70;;;;;;5027331;28;20040;-68
2022/06/13 07:39:20;;;;;;;5.72;1.60;;;28.20;1.00;;;;;;5010606;28;20029;-69
2022/06/13 07:41:46;;;;;;;5.65;1.30;;;29.00;1.00;;;;;;5008546;28;20046;-68
2022/06/13 07:44:21;;;;;;;4.00;1.30;;;30.10;1.00;;;;;;5028547;28;20029;-68
2022/06/13 07:46:46;;;;;;;1.63;0.93;;;32.30;1.00;;;;;;5008348;28;20512;-69
2022/06/13 07:49:13;;;;;;;4.43;1.30;;;31.40;1.00;;;;;;5029155;28;20037;-69
2022/06/13 07:51:39;;;;;;;4.65;1.95;;;30.90;1.00;;;;;;5008397;28;20599;-68
2022/06/13 07:54:05;;;;;;;3.47;1.77;;;29.70;1.00;;;;;;5009621;28;20034;-68
2022/06/13 07:56:31;;;;;;;3.42;1.60;;;28.50;1.00;;;;;;5027004;28;20401;-69
2022/06/13 07:58:58;;;;;;;4.38;1.58;;;27.30;1.00;;;;;;5029638;28;20018;-70
2022/06/13 08:01:24;;;;;;;3.13;1.35;;;26.10;1.00;;;;;;5000626;28;20030;-69
2022/06/13 08:03:52;;;;;;;2.67;1.27;;;25.20;1.00;;;;;;5009706;28;20018;-69
2022/06/13 08:06:18;;;;;;;2.30;1.13;;;24.50;1.40;;;;;;5026732;28;20065;-69
2022/06/13 08:08:45;;;;;;;6.55;1.73;;;24.00;2.10;;;;;;5029286;28;20025;-70
2022/06/13 08:11:14;;;;;;;3.83;1.50;;;23.60;3.10;;;;;;5007789;28;20041;-70
2022/06/13 08:13:40;;;;;;;4.35;1.55;;;23.30;3.40;;;;;;5009548;28;20044;-69
2022/06/13 08:16:07;;;;;;;4.43;1.60;;;23.00;4.00;;;;;;5026615;28;20041;-70
2022/06/13 08:18:34;;;;;;;3.92;1.70;;;22.60;4.70;;;;;;5029111;28;20033;-69
2022/06/13 08:20:59;;;;;;;3.25;1.00;;;22.40;5.20;;;;;;5007662;28;20448;-70
2022/06/13 08:23:25;;;;;;;4.13;1.40;;;22.10;5.30;;;;;;5009381;28;20026;-69
2022/06/13 08:25:51;;;;;;;3.63;1.10;;;22.10;5.50;;;;;;5026182;28;20167;-68
2022/06/13 08:28:16;;;;;;;3.08;1.40;;;22.00;5.90;;;;;;5029031;28;20055;-69
2022/06/13 08:30:47;;;;;;;3.38;1.33;;;22.30;5.90;;;;;;5009523;28;20474;-69
2022/06/13 08:33:13;;;;;;;2.63;1.40;;;22.70;5.70;;;;;;5009496;28;20172;-68
2022/06/13 08:35:39;;;;;;;4.38;1.42;;;23.10;4.80;;;;;;5027885;28;20529;-68
2022/06/13 08:38:05;;;;;;;4.72;1.63;;;23.30;4.50;;;;;;5026778;28;20172;-68
2022/06/13 08:40:38;;;;;;;5.38;1.55;;;23.70;4.10;;;;;;4991035;28;20049;-68
2022/06/13 08:43:25;;;;;;;2.67;1.50;;;24.20;3.50;;;;;;4989243;28;20038;-68
2022/06/13 08:46:00;;;;;;;3.63;1.50;;;25.60;2.30;;;;;;5006508;28;20501;-68
2022/06/13 08:48:38;;;;;;;2.88;1.52;;;26.80;1.00;;;;;;5028698;28;20390;-68
2022/06/13 08:51:10;;;;;;;7.15;1.17;;;28.70;1.00;;;;;;5028589;28;20511;-69
2022/06/13 08:53:56;;;;;;;2.92;1.40;;;30.10;1.00;;;;;;4988195;28;20395;-68
2022/06/13 08:56:27;;;;;;;4.07;1.30;;;32.30;1.00;;;;;;5028303;28;20033;-69
2022/06/13 08:58:59;;;;;;;2.85;1.20;;;33.10;1.00;;;;;;4993196;28;20098;-68
2022/06/13 09:01:38;;;;;;;3.72;1.85;;;34.50;1.00;;;;;;5024254;28;20026;-69
2022/06/13 09:04:11;;;;;;;3.85;1.50;;;34.70;1.00;;;;;;5006529;28;20026;-69
2022/06/13 09:06:46;;;;;;;3.08;1.30;;;35.40;1.00;;;;;;5008166;28;20032;-69
2022/06/13 09:09:17;;;;;;;;;;;35.80;1.00;;;;;;4998769;28;20045;-58
2022/06/13 09:11:50;;;;;;;4.50;1.55;;;36.20;1.00;;;;;;5028247;28;19959;-58
2022/06/13 09:14:34;;;;;;;3.58;1.75;;;35.80;1.00;;;;;;4999025;28;20029;-58
2022/06/13 09:17:15;;;;;;;3.20;1.67;;;34.90;1.00;;;;;;5008214;28;20064;-58
2022/06/13 09:20:16;;;;;;;3.47;1.60;;;33.40;1.00;;;;;;4999321;28;20032;-58
2022/06/13 09:23:03;;;;;;;4.80;1.75;;;32.80;1.00;;;;;;4988794;28;20395;-59
2022/06/13 09:25:39;;;;;;;3.78;1.55;;;31.50;1.00;;;;;;5003208;28;20100;-59
2022/06/13 09:28:14;;;;;;;5.22;2.03;;;30.50;1.00;;;;;;5027431;28;20083;-56
2022/06/13 09:30:56;;;;;;;7.85;2.28;;;29.70;1.00;;;;;;5004245;28;20532;-59
2022/06/13 09:33:29;;;;;;;3.92;1.80;;;29.70;1.00;;;;;;5027986;28;20406;-59
2022/06/13 09:36:00;;;;;;;4.70;1.63;;;30.50;1.00;;;;;;5005243;28;20092;-60
2022/06/13 09:38:34;;;;;;;4.15;1.40;;;31.90;1.00;;;;;;4988832;28;20039;-59
2022/06/13 09:41:02;;;;;;;3.97;1.52;;;32.50;1.00;;;;;;5004851;28;20049;-59
2022/06/13 09:44:17;;;;;;;4.93;1.77;;;33.20;1.00;;;;;;5007002;28;20030;-59
2022/06/13 09:47:10;;;;;;;3.33;1.40;;;32.70;1.00;;;;;;5021035;28;20042;-59
2022/06/13 09:49:39;;;;;;;4.32;1.80;;;31.90;1.00;;;;;;5013885;28;20029;-60
2022/06/13 09:52:27;;;;;;;4.50;1.63;;;31.00;1.00;;;;;;5007877;28;20030;-59
2022/06/13 09:55:11;;;;;;;4.13;1.63;;;30.80;1.00;;;;;;5008401;28;20032;-60
2022/06/13 09:57:52;;;;;;;5.55;1.70;;;30.20;1.00;;;;;;5007923;28;20151;-59
2022/06/13 10:00:45;;;;;;;4.60;1.60;;;29.70;1.00;;;;;;5005829;28;20147;-59
2022/06/13 10:03:36;;;;;;;3.83;1.50;;;29.60;1.00;;;;;;4988062;28;20034;-58
2022/06/13 10:06:14;;;;;;;5.97;1.50;;;28.20;1.00;;;;;;4992145;28;20080;-59
2022/06/13 10:09:23;;;;;;;3.22;1.25;;;27.70;1.00;;;;;;4988138;28;20030;-59
2022/06/13 10:12:11;;;;;;;2.25;1.38;;;26.90;1.00;;;;;;5013857;28;20468;-59
2022/06/13 10:14:54;;;;;;;2.80;1.35;;;26.10;1.00;;;;;;4988153;28;20398;-59
2022/06/13 10:17:30;;;;;;;4.47;1.55;;;25.20;1.00;;;;;;5004256;28;20030;-59
2022/06/13 10:20:15;;;;;;;8.70;1.90;;;24.80;1.00;;;;;;4998046;28;20037;-59
2022/06/13 10:23:07;;;;;;;5.90;1.90;;;24.40;1.00;;;;;;4988523;28;20293;-58
2022/06/13 10:25:52;;;;;;;4.72;1.70;;;23.90;1.00;;;;;;4993075;28;20030;-57
2022/06/13 10:28:33;;;;;;;3.90;1.40;;;23.40;1.00;;;;;;5007922;28;20220;-59
2022/06/13 10:31:36;;;;;;;4.05;1.65;;;23.30;1.00;;;;;;4983963;28;20041;-58
2022/06/13 10:34:28;;;;;;;4.15;1.42;;;23.30;1.60;;;;;;4987970;28;20042;-59
2022/06/13 10:36:58;;;;;;;3.03;1.50;;;23.50;1.50;;;;;;5000602;28;20038;-59
2022/06/13 10:39:26;;;;;;;4.47;1.70;;;23.60;1.00;;;;;;5027136;28;20068;-56
2022/06/13 10:41:56;;;;;;;3.83;1.38;;;23.70;1.00;;;;;;5002143;28;20069;-60
2022/06/13 10:44:22;;;;;;;5.40;1.42;;;23.70;1.00;;;;;;5026693;28;20397;-62
2022/06/13 10:47:01;;;;;;;3.80;1.33;;;23.60;1.00;;;;;;4992191;28;20034;-61
2022/06/13 10:49:34;;;;;;;6.38;1.58;;;23.70;1.00;;;;;;4987710;28;20097;-60
2022/06/13 10:52:06;;;;;;;5.50;1.70;;;23.80;1.00;;;;;;5009786;28;20486;-61
2022/06/13 10:54:39;;;;;;;5.70;1.80;;;23.70;1.00;;;;;;5027034;28;20100;-61
2022/06/13 10:57:12;;;;;;;5.20;1.60;;;23.50;1.10;;;;;;5001598;28;20030;-60
2022/06/13 10:59:38;;;;;;;4.70;1.45;;;23.70;1.00;;;;;;5017128;28;20030;-61
2022/06/13 11:02:25;;;;;;;3.97;1.67;;;23.90;1.00;;;;;;4993445;28;20414;-60
2022/06/13 11:05:09;;;;;;;3.65;1.40;;;24.00;1.60;;;;;;4991188;28;20323;-60
2022/06/13 11:07:43;;;;;;;5.55;1.38;;;24.00;1.30;;;;;;4991268;28;20030;-61
2022/06/13 11:10:24;;;;;;;5.28;1.65;;;24.00;1.00;;;;;;4989911;28;20426;-61
2022/06/13 11:12:51;;;;;;;3.90;1.75;;;24.10;1.30;;;;;;5012678;28;20748;-61
2022/06/13 11:23:51;;;;;;;6.68;1.98;;;24.00;1.00;;;;;;5030391;28;20032;-61
2022/06/13 11:29:03;;;;;;;3.72;1.38;;;23.70;1.00;;;;;;4990876;28;20457;-62
2022/06/13 11:31:29;;;;;;;3.03;1.20;;;23.40;1.00;;;;;;5016264;28;20022;-62
2022/06/13 11:33:54;;;;;;;5.18;1.33;;;23.30;1.00;;;;;;5029276;28;20040;-62
2022/06/13 11:36:26;;;;;;;3.10;1.30;;;23.30;1.00;;;;;;5008766;28;20065;-61
2022/06/13 11:39:01;;;;;;;5.10;1.52;;;23.40;1.00;;;;;;4990818;28;20038;-60
2022/06/13 11:41:39;;;;;;;2.80;1.13;;;23.60;1.00;;;;;;5027482;28;20045;-60
2022/06/13 11:44:12;;;;;;;4.28;1.42;;;23.60;1.10;;;;;;5009830;28;20068;-62
2022/06/13 11:46:51;;;;;;;6.18;1.40;;;23.50;1.00;;;;;;5001453;28;20253;-62
2022/06/13 11:49:16;;;;;;;1.90;1.17;;;23.60;1.10;;;;;;4990118;28;20442;-62
2022/06/13 11:52:11;;;;;;;3.65;1.48;;;23.50;1.20;;;;;;5013341;28;20026;-63
2022/06/13 11:54:48;;;;;;;4.63;1.30;;;23.50;1.00;;;;;;4992063;28;20132;-62
2022/06/13 11:57:14;;;;;;;3.88;1.27;;;23.50;1.00;;;;;;5005479;28;20034;-62
2022/06/13 12:00:06;;;;;;;5.53;1.25;;;23.40;1.00;;;;;;5021002;28;20026;-63
2022/06/13 12:02:40;;;;;;;2.22;1.10;;;23.40;1.00;;;;;;4972657;28;20394;-63
2022/06/13 12:05:31;;;;;;;2.92;1.00;;;23.30;1.00;;;;;;5028643;28;20025;-62
2022/06/13 12:08:19;;;;;;;3.65;1.10;;;23.30;1.20;;;;;;5029352;28;20047;-62
2022/06/13 12:11:05;;;;;;;2.80;1.10;;;23.30;1.00;;;;;;4989859;28;20024;-62
2022/06/13 12:13:36;;;;;;;5.13;1.70;;;23.40;1.00;;;;;;5029441;28;20489;-61
2022/06/13 12:16:34;;;;;;;3.40;1.10;;;23.20;1.00;;;;;;5003317;28;20033;-61
2022/06/13 12:19:22;;;;;;;6.63;2.03;;;23.30;1.00;;;;;;4989622;28;20513;-62
2022/06/13 12:22:02;;;;;;;4.43;1.25;;;23.40;1.00;;;;;;5001522;28;20065;-62
2022/06/13 12:24:49;;;;;;;1.88;0.95;;;23.10;1.00;;;;;;4994591;28;20033;-61
2022/06/13 12:27:34;;;;;;;4.65;1.40;;;23.10;1.00;;;;;;5029467;28;20045;-62
2022/06/13 12:30:14;;;;;;;2.35;1.20;;;23.00;1.00;;;;;;5003226;28;20034;-62
2022/06/13 12:33:25;;;;;;;5.40;1.33;;;22.80;1.00;;;;;;4993441;28;20615;-64
2022/06/13 12:36:23;;;;;;;2.20;1.05;;;22.80;1.00;;;;;;5002497;28;20034;-62
2022/06/13 12:39:23;;;;;;;4.05;1.48;;;22.80;1.10;;;;;;5029379;28;20380;-64
2022/06/13 12:42:12;;;;;;;4.22;1.40;;;22.90;1.80;;;;;;5018298;28;20058;-62
2022/06/13 12:45:19;;;;;;;3.58;1.33;;;22.90;1.30;;;;;;4997432;28;20635;-63
2022/06/13 12:47:57;;;;;;;6.82;1.60;;;22.90;2.50;;;;;;4941245;28;20071;-62
2022/06/13 12:50:33;;;;;;;2.42;1.00;;;22.60;2.60;;;;;;5026895;28;20041;-62
2022/06/13 12:53:16;;;;;;;5.13;1.30;;;22.50;3.30;;;;;;4989645;28;20038;-61
2022/06/13 12:55:55;;;;;;;3.22;1.10;;;22.60;3.90;;;;;;5001028;28;20026;-61
2022/06/13 12:58:29;;;;;;;2.95;1.10;;;22.60;4.50;;;;;;5028688;28;20028;-62
2022/06/13 13:01:02;;;;;;;3.97;1.08;;;22.30;4.60;;;;;;4988667;28;20034;-76
2022/06/13 13:03:57;;;;;;;9.57;1.40;;;22.10;4.40;;;;;;4989694;28;20027;-75
2022/06/13 13:06:41;;;;;;;3.72;1.23;;;21.70;6.00;;;;;;5006696;28;20036;-75
2022/06/13 13:09:35;;;;;;;8.25;1.30;;;21.40;5.60;;;;;;4988431;28;20069;-75
2022/06/13 13:12:41;;;;;;;5.28;1.50;;;21.10;6.50;;;;;;5028588;28;20061;-60
2022/06/13 13:15:26;;;;;;;4.90;1.25;;;20.70;8.40;;;;;;5004464;28;20034;-61
2022/06/13 13:18:35;;;;;;;2.83;1.00;;;20.60;8.00;;;;;;4989136;28;20034;-62
2022/06/13 13:21:12;;;;;;;2.72;1.13;;;20.80;7.80;;;;;;4923179;29;20411;-62
2022/06/13 13:23:50;;;;;;;2.15;1.00;;;20.90;7.00;;;;;;4928030;29;20460;-62
2022/06/13 13:26:47;;;;;;;4.20;1.30;;;20.90;7.30;;;;;;4987496;28;20048;-61
2022/06/13 13:29:35;;;;;;;5.47;1.50;;;21.10;7.30;;;;;;4989518;28;20034;-62
2022/06/13 13:32:20;;;;;;;2.22;1.08;;;21.30;6.70;;;;;;5028261;28;20756;-62
2022/06/13 13:35:01;;;;;;;2.70;1.20;;;21.30;7.00;;;;;;4998396;28;20016;-62
2022/06/13 13:37:34;;;;;;;2.15;1.05;;;21.10;6.80;;;;;;5008419;28;20033;-62
2022/06/13 13:40:26;;;;;;;3.45;1.10;;;21.00;6.60;;;;;;5005023;28;20038;-62
2022/06/13 13:43:07;;;;;;;2.80;0.90;;;21.00;6.50;;;;;;5025879;28;20053;-62
2022/06/13 13:45:46;;;;;;;2.63;1.17;;;21.00;6.10;;;;;;5027964;28;20025;-61
2022/06/13 13:48:24;;;;;;;1.77;1.00;;;21.10;5.90;;;;;;4993311;28;20155;-62
2022/06/13 13:50:57;;;;;;;2.85;1.17;;;21.10;5.90;;;;;;5027923;28;20037;-61
2022/06/13 13:53:30;;;;;;;6.00;1.15;;;21.10;6.20;;;;;;4996536;28;20017;-62
2022/06/13 13:56:07;;;;;;;3.28;1.38;;;21.00;8.30;;;;;;5027876;28;20021;-62